Time;durP1;ratioP1;P1;durP2;ratioP2;P2;SDS_P1;SDS_P2;PMS_P1;PMS_P2;Temp;Humidity;BMP_temperature;BMP_pressure;BME280_temperature;BME280_humidity;BME280_pressure;Samples;Min_cycle;Max_cycle;Signal;HPM_P1;HPM_P2
2024/03/12 00:01:09;;;;;;;58.17;29.77;;;;;;;6.82;100.00;100152.75;5015700;57;1142724;-74
2024/03/12 00:06:18;;;;;;;64.17;32.73;;;;;;;6.83;100.00;100153.13;5026444;57;1142930;-79
2024/03/12 00:11:24;;;;;;;75.00;35.43;;;;;;;6.86;100.00;100155.55;5078779;56;1142867;-81
2024/03/12 00:16:30;;;;;;;68.63;31.23;;;;;;;6.88;100.00;100157.58;5099010;57;1142983;-74
2024/03/12 00:21:37;;;;;;;62.88;31.87;;;;;;;6.84;100.00;100150.86;5049338;56;1143292;-77
2024/03/12 00:26:43;;;;;;;69.77;32.13;;;;;;;6.82;100.00;100150.97;4996784;57;1142844;-74
2024/03/12 00:31:48;;;;;;;61.05;31.02;;;;;;;6.83;100.00;100149.18;5015934;57;1142798;-77
2024/03/12 00:36:54;;;;;;;69.22;35.10;;;;;;;6.85;100.00;100149.45;4996370;57;1142927;-71
2024/03/12 00:41:59;;;;;;;74.90;34.87;;;;;;;6.85;100.00;100140.25;4995964;57;1142728;-76
2024/03/12 00:47:05;;;;;;;62.27;31.47;;;;;;;6.84;100.00;100145.14;5098955;56;1143032;-77
2024/03/12 00:52:10;;;;;;;62.13;30.53;;;;;;;6.78;100.00;100145.54;5079031;56;1142584;-81
2024/03/12 00:57:16;;;;;;;63.93;31.40;;;;;;;6.77;100.00;100146.95;5075716;56;1142714;-79
2024/03/12 01:02:21;;;;;;;71.97;33.27;;;;;;;6.77;100.00;100147.80;5097760;56;1142797;-71
2024/03/12 01:07:27;;;;;;;83.87;34.77;;;;;;;6.69;100.00;100141.77;5079207;56;1142974;-76
2024/03/12 01:12:33;;;;;;;68.13;31.70;;;;;;;6.67;100.00;100141.49;5079318;56;1140988;-76
2024/03/12 01:17:39;;;;;;;58.28;31.10;;;;;;;6.66;100.00;100146.38;5076752;55;1143120;-76
2024/03/12 01:22:45;;;;;;;64.95;30.35;;;;;;;6.63;100.00;100145.27;5021990;56;1143096;-71
2024/03/12 01:28:01;;;;;;;68.77;33.93;;;;;;;6.64;100.00;100143.84;4996504;57;1142901;-74
2024/03/12 01:33:02;;;;;;;68.87;31.33;;;;;;;6.62;100.00;100144.42;4994643;57;1143249;-77
2024/03/12 01:38:08;;;;;;;79.47;31.73;;;;;;;6.60;100.00;100144.15;5015915;57;1142851;-74
2024/03/12 01:43:14;;;;;;;69.47;30.90;;;;;;;6.62;100.00;100150.14;5076782;57;1142925;-76
2024/03/12 01:48:22;;;;;;;64.70;29.47;;;;;;;6.65;100.00;100146.00;5078898;56;1142948;-76
2024/03/12 01:53:26;;;;;;;74.03;33.90;;;;;;;6.67;100.00;100149.37;5098607;56;1142805;-74
2024/03/12 01:58:32;;;;;;;68.87;34.97;;;;;;;6.71;100.00;100149.55;5079050;56;1142829;-76
2024/03/12 02:03:38;;;;;;;76.47;36.53;;;;;;;6.70;100.00;100150.48;5078996;56;1143227;-74
2024/03/12 02:08:44;;;;;;;72.15;36.65;;;;;;;6.67;100.00;100152.00;5078972;54;1143214;-77
2024/03/12 02:13:51;;;;;;;78.57;34.23;;;;;;;6.69;100.00;100157.53;5099035;55;1142896;-78
2024/03/12 02:18:56;;;;;;;75.00;34.87;;;;;;;6.69;100.00;100159.31;5079374;55;1142799;-72
2024/03/12 02:24:02;;;;;;;75.73;34.77;;;;;;;6.69;100.00;100166.73;4997151;57;1142864;-76
2024/03/12 02:29:09;;;;;;;82.80;35.37;;;;;;;6.70;100.00;100158.38;5016202;57;1142850;-73
2024/03/12 02:34:14;;;;;;;68.13;33.30;;;;;;;6.73;100.00;100155.98;4996111;56;1142702;-74
2024/03/12 02:39:21;;;;;;;83.07;36.40;;;;;;;6.73;100.00;100151.57;5074279;56;1143054;-72
2024/03/12 02:44:27;;;;;;;74.10;33.43;;;;;;;6.76;100.00;100155.31;5099568;56;1142858;-78
2024/03/12 02:49:32;;;;;;;76.43;33.93;;;;;;;6.70;100.00;100147.39;5076606;56;1142897;-71
2024/03/12 02:54:41;;;;;;;77.20;33.83;;;;;;;6.71;100.00;100149.55;5076898;56;1142968;-72
2024/03/12 02:59:46;;;;;;;78.90;34.67;;;;;;;6.76;100.00;100150.52;5077076;55;1142966;-75
2024/03/12 03:04:51;;;;;;;63.50;31.70;;;;;;;6.80;100.00;100150.70;5099352;56;1142894;-77
2024/03/12 03:09:57;;;;;;;76.00;35.07;;;;;;;6.83;100.00;100147.87;5079854;56;1142813;-74
2024/03/12 03:15:03;;;;;;;83.72;39.23;;;;;;;6.85;100.00;100149.92;5079626;56;1143066;-76
2024/03/12 03:20:19;;;;;;;79.37;37.10;;;;;;;6.84;100.00;100153.02;5099162;56;1142812;-74
2024/03/12 03:25:20;;;;;;;77.33;34.77;;;;;;;6.85;100.00;100157.34;5078974;56;1143064;-78
2024/03/12 03:30:26;;;;;;;73.37;33.45;;;;;;;6.89;100.00;100152.69;5079049;56;1142887;-76
2024/03/12 03:35:31;;;;;;;65.33;34.37;;;;;;;6.90;100.00;100159.63;5098914;56;1142814;-73
2024/03/12 03:40:37;;;;;;;77.13;35.40;;;;;;;6.90;100.00;100153.06;5079189;56;1142963;-71
2024/03/12 03:45:43;;;;;;;72.80;33.73;;;;;;;6.97;100.00;100159.59;5077838;56;1143374;-74
2024/03/12 03:50:48;;;;;;;82.00;37.57;;;;;;;7.00;100.00;100164.17;5108834;56;1142954;-79
2024/03/12 03:55:57;;;;;;;85.40;38.33;;;;;;;7.04;100.00;100163.00;5048579;55;1142802;-72
2024/03/12 04:01:03;;;;;;;77.47;36.47;;;;;;;7.09;100.00;100164.48;5080649;56;1143107;-72
2024/03/12 04:06:08;;;;;;;66.87;36.20;;;;;;;7.07;100.00;100168.52;5090464;56;1143000;-77
2024/03/12 04:11:14;;;;;;;80.80;35.00;;;;;;;7.08;100.00;100168.05;5098951;56;1142935;-71
2024/03/12 04:16:19;;;;;;;66.67;33.33;;;;;;;6.99;100.00;100165.59;5099235;56;1142856;-77
2024/03/12 04:21:26;;;;;;;90.03;37.83;;;;;;;6.99;100.00;100165.59;5119086;56;1142870;-74
2024/03/12 04:26:31;;;;;;;89.37;39.07;;;;;;;6.91;100.00;100164.78;5099521;56;1142584;-75
2024/03/12 04:31:38;;;;;;;95.87;41.33;;;;;;;6.83;100.00;100168.89;5098972;56;1142667;-76
2024/03/12 04:36:44;;;;;;;91.43;40.53;;;;;;;6.76;100.00;100166.30;5099861;56;1140939;-71
2024/03/12 04:41:50;;;;;;;102.35;39.98;;;;;;;6.77;100.00;100170.61;5117752;56;1143002;-75
2024/03/12 04:46:56;;;;;;;88.20;38.77;;;;;;;6.76;100.00;100172.86;5095038;56;1144941;-77
2024/03/12 04:52:02;;;;;;;82.00;36.93;;;;;;;6.77;100.00;100172.77;5093436;55;1142927;-73
2024/03/12 04:57:07;;;;;;;100.38;38.90;;;;;;;6.73;100.00;100177.85;5093230;55;1142765;-74
2024/03/12 05:02:13;;;;;;;98.90;37.47;;;;;;;6.70;100.00;100183.34;5079306;56;1145173;-74
2024/03/12 05:07:18;;;;;;;96.93;38.87;;;;;;;6.76;100.00;100182.91;5078802;56;1142937;-77
2024/03/12 05:12:24;;;;;;;90.57;40.50;;;;;;;6.76;100.00;100184.22;5098947;56;1143234;-75
2024/03/12 05:17:29;;;;;;;93.27;40.07;;;;;;;6.67;100.00;100191.42;5079004;56;1142754;-73
2024/03/12 05:22:35;;;;;;;96.67;40.33;;;;;;;6.62;100.00;100188.25;5079099;56;1142758;-73
2024/03/12 05:27:43;;;;;;;98.03;37.85;;;;;;;6.66;100.00;100187.11;5079000;56;1142835;-72
2024/03/12 05:32:53;;;;;;;98.37;40.87;;;;;;;6.68;100.00;100193.11;5099017;56;1145741;-71
2024/03/12 05:38:02;;;;;;;115.97;45.10;;;;;;;6.76;100.00;100193.89;5079150;56;1142555;-74
2024/03/12 05:48:33;;;;;;;142.57;57.83;;;;;;;6.78;100.00;100216.50;5015525;57;1144909;-76
2024/03/12 05:53:39;;;;;;;122.87;48.40;;;;;;;6.77;100.00;100216.60;5064369;56;1144904;-76
2024/03/12 05:58:50;;;;;;;124.53;48.53;;;;;;;6.77;100.00;100223.17;5076429;57;1145032;-74
2024/03/12 06:03:54;;;;;;;133.50;48.42;;;;;;;6.82;100.00;100223.25;5074614;56;1153746;-74
2024/03/12 06:09:00;;;;;;;120.17;45.38;;;;;;;6.82;100.00;100231.61;5074925;56;1144923;-76
2024/03/12 06:14:06;;;;;;;137.07;51.03;;;;;;;6.78;100.00;100236.69;5063489;56;1145274;-81
2024/03/12 06:19:12;;;;;;;136.20;47.90;;;;;;;6.75;100.00;100236.89;5087996;56;1145150;-80
2024/03/12 06:24:17;;;;;;;120.07;45.93;;;;;;;6.82;100.00;100237.70;5020759;56;1145094;-77
2024/03/12 06:29:23;;;;;;;123.07;47.00;;;;;;;6.86;100.00;100242.30;5017515;56;1144751;-71
2024/03/12 06:34:29;;;;;;;121.80;48.90;;;;;;;6.91;100.00;100252.02;5047702;56;1145045;-73
2024/03/12 06:39:35;;;;;;;126.60;49.17;;;;;;;6.90;100.00;100260.84;5026131;56;1145332;-77
2024/03/12 06:44:43;;;;;;;124.10;50.03;;;;;;;6.92;100.00;100263.74;5061986;56;1144833;-77
2024/03/12 06:49:49;;;;;;;130.37;51.23;;;;;;;6.97;100.00;100268.70;5079905;56;1145348;-72
2024/03/12 06:54:55;;;;;;;118.13;49.77;;;;;;;6.98;100.00;100265.97;5062743;56;1144995;-74
2024/03/12 07:00:09;;;;;;;108.32;45.23;;;;;;;7.05;100.00;100265.92;5078952;57;1144770;-72
2024/03/12 07:05:09;;;;;;;118.27;50.67;;;;;;;7.06;100.00;100275.96;5081399;56;1144867;-77
2024/03/12 07:10:18;;;;;;;116.53;49.43;;;;;;;6.99;100.00;100276.86;5067258;56;1145112;-75
2024/03/12 07:15:24;;;;;;;129.70;53.80;;;;;;;6.97;100.00;100277.44;5034722;56;1145031;-77
2024/03/12 07:20:31;;;;;;;120.23;52.13;;;;;;;7.00;100.00;100279.02;5066896;56;1145030;-77
2024/03/12 07:25:36;;;;;;;135.03;55.50;;;;;;;6.94;100.00;100277.63;5078697;56;1145043;-74
2024/03/12 07:30:44;;;;;;;132.23;54.37;;;;;;;6.92;100.00;100283.45;5073205;56;1144892;-76
2024/03/12 07:35:49;;;;;;;134.47;52.60;;;;;;;6.90;100.00;100288.44;5097638;56;1144850;-76
2024/03/12 07:40:55;;;;;;;119.65;48.23;;;;;;;6.92;100.00;100283.93;5076917;55;1144927;-76
2024/03/12 07:46:02;;;;;;;128.87;50.45;;;;;;;6.96;100.00;100280.16;5048861;56;1145055;-75
2024/03/12 07:51:09;;;;;;;106.55;46.37;;;;;;;7.03;100.00;100281.42;5091336;56;1144775;-75
2024/03/12 07:56:15;;;;;;;116.70;50.63;;;;;;;7.04;100.00;100285.73;5076335;56;1145186;-78
2024/03/12 08:01:20;;;;;;;98.83;43.67;;;;;;;7.08;100.00;100286.38;5096172;56;1144825;-75
2024/03/12 08:06:26;;;;;;;113.40;47.67;;;;;;;7.15;100.00;100287.20;5117266;56;1142707;-72
2024/03/12 08:11:33;;;;;;;123.60;52.90;;;;;;;7.17;100.00;100298.94;5077785;56;1144658;-69
2024/03/12 08:16:39;;;;;;;104.03;47.23;;;;;;;7.16;100.00;100286.26;5035421;56;1145198;-73
2024/03/12 08:21:44;;;;;;;113.32;46.75;;;;;;;7.24;100.00;100292.30;5098784;56;1145023;-77
2024/03/12 08:26:50;;;;;;;109.97;47.25;;;;;;;7.26;100.00;100289.95;5118964;56;1145268;-72
2024/03/12 08:31:56;;;;;;;105.50;47.33;;;;;;;7.35;100.00;100301.14;5091042;56;1144998;-75
2024/03/12 08:37:03;;;;;;;121.07;48.67;;;;;;;7.49;100.00;100296.26;5081234;55;1145145;-77
2024/03/12 08:42:09;;;;;;;128.43;52.37;;;;;;;7.51;100.00;100302.73;5056664;56;1144874;-72
2024/03/12 08:47:16;;;;;;;98.10;42.63;;;;;;;7.47;100.00;100299.97;5099085;55;1144885;-76
2024/03/12 08:52:22;;;;;;;100.70;45.63;;;;;;;7.48;100.00;100306.92;5102153;56;1142955;-74
2024/03/12 08:57:27;;;;;;;97.37;42.17;;;;;;;7.51;100.00;100315.89;5112834;56;1145036;-79
2024/03/12 09:02:33;;;;;;;97.40;46.30;;;;;;;7.61;100.00;100309.92;5083541;56;1142755;-76
2024/03/12 09:07:39;;;;;;;97.10;45.37;;;;;;;7.68;100.00;100312.48;5075977;56;1142942;-75
2024/03/12 09:12:44;;;;;;;105.92;44.93;;;;;;;7.75;100.00;100319.50;5076748;56;1143369;-73
2024/03/12 09:17:50;;;;;;;102.60;46.50;;;;;;;7.81;100.00;100316.42;5077229;56;1144890;-72
2024/03/12 09:22:55;;;;;;;93.70;43.02;;;;;;;7.84;100.00;100313.58;5038735;56;1272192;-74
2024/03/12 09:28:01;;;;;;;116.40;51.53;;;;;;;7.86;100.00;100318.27;5066324;56;1142967;-75
2024/03/12 09:33:06;;;;;;;98.62;45.43;;;;;;;7.82;100.00;100319.42;5096271;56;1144995;-78
2024/03/12 09:38:12;;;;;;;117.40;50.63;;;;;;;7.81;100.00;100318.20;5079960;55;1142788;-77
2024/03/12 09:43:21;;;;;;;120.77;51.20;;;;;;;7.76;100.00;100329.08;5040183;56;1144998;-72
2024/03/12 09:48:27;;;;;;;105.43;47.20;;;;;;;7.82;100.00;100329.95;5064026;55;1144754;-76
2024/03/12 09:53:33;;;;;;;97.37;44.58;;;;;;;7.91;100.00;100333.28;5076033;56;1145011;-76
2024/03/12 09:58:38;;;;;;;89.40;41.50;;;;;;;8.00;100.00;100335.27;5076388;56;1142782;-74
2024/03/12 10:03:46;;;;;;;100.20;45.07;;;;;;;8.07;100.00;100333.90;5050770;56;1143055;-71
2024/03/12 10:08:57;;;;;;;90.00;43.60;;;;;;;8.14;100.00;100339.56;5127798;56;1145223;-73
2024/03/12 10:14:03;;;;;;;82.90;38.73;;;;;;;8.09;100.00;100339.91;5062545;56;1142997;-78
2024/03/12 10:19:15;;;;;;;77.53;39.03;;;;;;;8.12;100.00;100340.14;5104910;55;1142667;-73
2024/03/12 10:24:25;;;;;;;83.07;36.20;;;;;;;8.08;100.00;100346.59;5080812;55;1142982;-76
2024/03/12 10:29:36;;;;;;;73.93;35.53;;;;;;;8.16;100.00;100347.36;5079175;56;1143276;-78
2024/03/12 10:34:42;;;;;;;72.97;36.60;;;;;;;8.15;100.00;100351.78;5080597;56;1142804;-76
2024/03/12 10:39:48;;;;;;;82.00;41.13;;;;;;;8.10;100.00;100357.84;5102050;56;1142812;-74
2024/03/12 10:44:57;;;;;;;82.27;39.87;;;;;;;8.08;100.00;100361.92;5120521;56;1142984;-74
2024/03/12 10:50:06;;;;;;;85.32;40.40;;;;;;;8.03;100.00;100354.81;5081011;56;1142983;-73
2024/03/12 10:55:21;;;;;;;94.83;41.83;;;;;;;8.02;100.00;100361.02;5039165;56;1142985;-75
2024/03/12 11:00:28;;;;;;;80.73;38.80;;;;;;;8.06;100.00;100369.56;5117859;56;1143323;-75
2024/03/12 11:05:34;;;;;;;74.27;38.33;;;;;;;8.11;100.00;100370.06;5087212;56;1142999;-74
2024/03/12 11:10:42;;;;;;;76.87;37.87;;;;;;;8.13;100.00;100372.12;5033162;56;1143264;-75
2024/03/12 11:15:47;;;;;;;79.90;37.20;;;;;;;8.25;100.00;100378.34;5010359;56;1142908;-75
2024/03/12 11:20:53;;;;;;;82.10;37.88;;;;;;;8.24;100.00;100377.98;5048140;56;1143288;-73
2024/03/12 11:25:59;;;;;;;79.15;41.60;;;;;;;8.22;100.00;100379.39;5026068;55;1143168;-70
2024/03/12 11:31:07;;;;;;;88.73;45.63;;;;;;;8.21;100.00;100373.77;5000163;57;1143048;-73
2024/03/12 11:36:21;;;;;;;84.50;43.37;;;;;;;8.28;100.00;100371.05;5053442;56;1142572;-74
2024/03/12 11:41:31;;;;;;;84.20;42.40;;;;;;;8.36;100.00;100374.50;5051995;56;1143011;-75
2024/03/12 11:46:44;;;;;;;77.23;39.33;;;;;;;8.44;100.00;100374.79;5043136;56;1142833;-78
2024/03/12 11:51:59;;;;;;;79.60;42.10;;;;;;;8.53;100.00;100376.79;5077156;56;1142825;-71
2024/03/12 11:57:04;;;;;;;74.62;36.50;;;;;;;8.58;100.00;100371.16;5094800;56;1142692;-77
2024/03/12 12:02:10;;;;;;;74.12;38.98;;;;;;;8.59;100.00;100366.27;5044313;56;1142818;-75
2024/03/12 12:07:17;;;;;;;75.57;36.23;;;;;;;8.57;100.00;100361.58;5040129;56;1143159;-77
2024/03/12 12:12:23;;;;;;;80.30;37.40;;;;;;;8.62;100.00;100358.14;5033501;57;1143044;-74
2024/03/12 12:17:30;;;;;;;72.43;35.27;;;;;;;8.72;100.00;100357.83;5071171;56;1142933;-74
2024/03/12 12:22:36;;;;;;;70.67;36.47;;;;;;;8.93;100.00;100356.28;5065308;56;1142685;-73
2024/03/12 12:27:42;;;;;;;74.20;38.13;;;;;;;9.09;100.00;100350.72;5083078;56;1142751;-70
2024/03/12 12:32:52;;;;;;;68.33;36.40;;;;;;;9.23;100.00;100350.53;5094445;56;1143040;-73
2024/03/12 12:37:59;;;;;;;68.87;35.37;;;;;;;9.42;100.00;100347.36;5035712;56;1149747;-75
2024/03/12 12:43:05;;;;;;;61.23;33.37;;;;;;;9.62;100.00;100349.34;5044790;56;1143131;-77
2024/03/12 12:48:11;;;;;;;62.17;32.40;;;;;;;9.76;100.00;100351.77;5049532;56;1142765;-71
2024/03/12 12:53:21;;;;;;;62.33;33.80;;;;;;;9.84;100.00;100344.07;5025973;56;1142884;-77
2024/03/12 12:58:31;;;;;;;57.60;33.27;;;;;;;9.83;100.00;100347.67;5037602;56;1142861;-75
2024/03/12 13:03:41;;;;;;;53.38;30.00;;;;;;;9.91;100.00;100348.89;5045488;56;1143126;-77
2024/03/12 13:08:59;;;;;;;57.43;31.43;;;;;;;9.98;100.00;100346.13;5059354;56;1142849;-75
2024/03/12 13:14:06;;;;;;;51.48;28.52;;;;;;;10.01;100.00;100357.30;5056850;56;1142886;-75
2024/03/12 13:19:12;;;;;;;54.05;30.10;;;;;;;10.05;100.00;100357.91;5064583;56;1145362;-79
2024/03/12 13:24:24;;;;;;;52.60;30.97;;;;;;;10.10;100.00;100359.21;5057442;56;1145067;-72
2024/03/12 13:29:25;;;;;;;59.43;33.13;;;;;;;10.09;100.00;100364.13;5063976;56;1145323;-75
2024/03/12 13:34:31;;;;;;;49.80;30.23;;;;;;;10.14;100.00;100367.27;5043232;56;1145103;-81
2024/03/12 13:39:37;;;;;;;61.93;34.53;;;;;;;10.21;100.00;100370.31;5050963;56;1145076;-77
2024/03/12 13:44:43;;;;;;;59.33;31.87;;;;;;;10.23;100.00;100368.87;5084639;56;1145126;-78
2024/03/12 13:49:48;;;;;;;61.00;32.50;;;;;;;10.24;100.00;100375.34;5063400;56;1144916;-78
2024/03/12 13:54:54;;;;;;;55.07;33.10;;;;;;;10.26;100.00;100370.78;5082759;56;1145073;-79
2024/03/12 14:00:00;;;;;;;62.53;35.70;;;;;;;10.34;100.00;100374.16;5094602;56;1144927;-72
2024/03/12 14:05:08;;;;;;;60.00;33.47;;;;;;;10.36;100.00;100368.27;5097662;56;1145206;-78
2024/03/12 14:10:13;;;;;;;68.95;38.10;;;;;;;10.34;100.00;100375.00;5044031;56;1144918;-72
2024/03/12 14:15:20;;;;;;;64.57;33.83;;;;;;;10.34;100.00;100373.67;5015668;57;1145280;-74
2024/03/12 14:20:28;;;;;;;57.57;32.70;;;;;;;10.38;100.00;100376.92;5049655;56;1144836;-74
2024/03/12 14:25:33;;;;;;;63.80;35.10;;;;;;;10.42;100.00;100382.30;5056785;56;1144982;-74
2024/03/12 14:30:39;;;;;;;62.10;36.53;;;;;;;10.49;100.00;100379.55;5039683;56;1145064;-75
2024/03/12 14:35:46;;;;;;;77.23;39.37;;;;;;;10.51;100.00;100379.80;5039533;56;1144921;-75
2024/03/12 14:40:52;;;;;;;67.43;40.23;;;;;;;10.50;100.00;100376.79;4996307;56;1144822;-81
2024/03/12 14:45:59;;;;;;;65.63;37.30;;;;;;;10.51;100.00;100378.47;4977634;56;1144763;-72
2024/03/12 14:51:06;;;;;;;66.12;36.60;;;;;;;10.54;100.00;100376.07;5054052;56;1145005;-77
2024/03/12 14:56:11;;;;;;;67.27;36.68;;;;;;;10.57;100.00;100379.28;4995855;56;1145363;-79
2024/03/12 15:01:17;;;;;;;70.87;39.97;;;;;;;10.57;100.00;100385.05;4995549;56;1145067;-79
2024/03/12 15:06:23;;;;;;;74.17;41.40;;;;;;;10.51;100.00;100388.20;5047926;56;1144978;-75
2024/03/12 15:11:29;;;;;;;72.20;38.87;;;;;;;10.42;100.00;100384.95;5077900;56;1145128;-74
2024/03/12 15:16:35;;;;;;;67.17;37.40;;;;;;;10.34;100.00;100386.89;5050062;56;1145066;-78
2024/03/12 15:21:41;;;;;;;60.60;34.77;;;;;;;10.34;100.00;100396.63;4995813;56;1144856;-75
2024/03/12 15:26:50;;;;;;;58.80;33.93;;;;;;;10.36;100.00;100394.70;5015145;56;1145316;-75
2024/03/12 15:31:57;;;;;;;63.53;37.23;;;;;;;10.36;100.00;100394.70;4995489;56;1145108;-79
2024/03/12 15:37:03;;;;;;;66.37;38.00;;;;;;;10.34;100.00;100393.98;4995724;56;1150031;-76
2024/03/12 15:42:08;;;;;;;61.40;35.57;;;;;;;10.32;100.00;100403.83;5015172;57;1144926;-83
2024/03/12 15:47:14;;;;;;;90.45;45.40;;;;;;;10.33;100.00;100409.48;5053253;56;1144963;-76
2024/03/12 15:52:20;;;;;;;64.50;36.37;;;;;;;10.31;100.00;100408.75;4995929;57;1145161;-76
2024/03/12 15:57:26;;;;;;;67.50;39.07;;;;;;;10.27;100.00;100411.27;5017707;57;1144905;-75
2024/03/12 16:02:33;;;;;;;75.70;40.27;;;;;;;10.23;100.00;100412.82;4994606;57;1144898;-78
2024/03/12 16:07:41;;;;;;;74.57;38.93;;;;;;;10.18;100.00;100422.93;5048672;56;1145032;-75
2024/03/12 16:12:48;;;;;;;88.78;44.55;;;;;;;10.10;100.00;100428.39;5003423;57;1145194;-76
2024/03/12 16:17:54;;;;;;;76.13;43.90;;;;;;;9.99;100.00;100433.19;5014934;57;1145052;-74
2024/03/12 16:23:00;;;;;;;87.23;41.67;;;;;;;9.90;100.00;100435.70;4996046;57;1142851;-82
2024/03/12 16:28:06;;;;;;;73.80;38.35;;;;;;;9.80;100.00;100434.22;4996106;58;1142735;-77
2024/03/12 16:33:12;;;;;;;95.05;53.28;;;;;;;9.77;100.00;100439.77;5016104;57;1142802;-76
2024/03/12 16:38:21;;;;;;;99.63;52.27;;;;;;;9.76;100.00;100446.00;4995535;57;1142770;-76
2024/03/12 16:43:25;;;;;;;121.93;55.57;;;;;;;9.71;100.00;100446.34;4992130;57;1142808;-76
2024/03/12 16:48:32;;;;;;;82.93;43.87;;;;;;;9.63;100.00;100451.80;5014807;57;1145098;-73
2024/03/12 16:53:38;;;;;;;95.87;50.30;;;;;;;9.56;100.00;100454.08;4995553;57;1142978;-74
2024/03/12 16:58:44;;;;;;;118.08;62.58;;;;;;;9.53;100.00;100454.30;4996020;57;1142784;-73
2024/03/12 17:03:50;;;;;;;108.77;51.47;;;;;;;9.50;100.00;100450.09;5014806;57;1144743;-74
2024/03/12 17:08:56;;;;;;;138.10;73.87;;;;;;;9.48;100.00;100456.43;4996143;56;1145250;-74
2024/03/12 17:14:06;;;;;;;103.17;56.07;;;;;;;9.46;100.00;100459.69;4994398;57;1144788;-75
2024/03/12 17:19:13;;;;;;;269.25;127.80;;;;;;;9.41;100.00;100467.94;5112538;56;1145039;-73
2024/03/12 17:24:22;;;;;;;260.50;131.10;;;;;;;9.36;100.00;100471.38;5098344;56;1146979;-79
2024/03/12 17:29:27;;;;;;;376.13;190.57;;;;;;;9.33;100.00;100476.88;5098405;55;1146881;-79
2024/03/12 17:34:33;;;;;;;160.87;81.83;;;;;;;9.27;100.00;100477.82;5118414;56;1146781;-78
2024/03/12 17:39:40;;;;;;;167.13;98.63;;;;;;;9.26;100.00;100479.62;5029972;56;1145110;-79
2024/03/12 17:44:46;;;;;;;128.20;67.73;;;;;;;9.29;100.00;100480.72;5097335;56;1144849;-75
2024/03/12 17:49:54;;;;;;;123.25;61.80;;;;;;;9.33;100.00;100493.19;5098151;56;1144860;-77
2024/03/12 17:55:00;;;;;;;108.20;55.60;;;;;;;9.31;100.00;100493.33;5115728;56;1263106;-75
2024/03/12 18:00:09;;;;;;;88.27;46.77;;;;;;;9.29;100.00;100503.62;5097920;56;1149969;-80
2024/03/12 18:05:24;;;;;;;74.20;40.33;;;;;;;9.20;100.00;100501.16;5096111;56;1142742;-75
2024/03/12 18:10:27;;;;;;;62.93;37.77;;;;;;;9.21;100.00;100503.32;5114344;56;1143015;-78
2024/03/12 18:15:34;;;;;;;60.20;32.63;;;;;;;9.25;100.00;100507.44;5057013;56;1142974;-79
2024/03/12 18:20:42;;;;;;;68.53;40.33;;;;;;;9.25;100.00;100505.64;5051272;56;1142717;-73
2024/03/12 18:25:50;;;;;;;71.75;40.08;;;;;;;9.23;100.00;100504.91;5055978;56;1143013;-77
2024/03/12 18:31:01;;;;;;;95.60;48.27;;;;;;;9.21;100.00;100508.59;5067367;55;1143197;-77
2024/03/12 18:36:02;;;;;;;98.17;50.00;;;;;;;9.15;100.00;100511.22;5052962;56;1146394;-80
2024/03/12 18:41:07;;;;;;;249.73;82.47;;;;;;;9.15;100.00;100512.55;5055880;56;1143274;-77
2024/03/12 18:46:13;;;;;;;483.62;178.97;;;;;;;9.18;100.00;100515.78;5101112;56;1144674;-76
2024/03/12 18:51:20;;;;;;;367.82;118.87;;;;;;;9.22;100.00;100514.25;5097589;56;1146821;-79
2024/03/12 18:56:27;;;;;;;310.43;107.63;;;;;;;9.14;100.00;100513.02;5097717;56;1146779;-77
2024/03/12 19:01:39;;;;;;;329.70;140.40;;;;;;;9.10;100.00;100510.22;5103750;56;1147164;-77
2024/03/12 19:06:47;;;;;;;168.80;82.53;;;;;;;9.09;100.00;100520.88;5053300;56;1147081;-79
2024/03/12 19:11:54;;;;;;;144.45;64.30;;;;;;;9.03;100.00;100516.88;5055637;56;1144723;-78
2024/03/12 19:17:03;;;;;;;139.20;66.20;;;;;;;8.96;100.00;100521.39;5077276;56;1144792;-78
2024/03/12 19:22:10;;;;;;;140.18;67.27;;;;;;;8.92;100.00;100511.53;5059684;55;1145310;-77
2024/03/12 19:27:16;;;;;;;152.70;66.60;;;;;;;8.92;100.00;100513.32;5026643;55;1144897;-80
2024/03/12 19:32:22;;;;;;;156.87;70.75;;;;;;;8.80;100.00;100530.86;5089837;55;1145316;-75
2024/03/12 19:37:30;;;;;;;185.53;81.40;;;;;;;8.72;100.00;100526.11;5098628;56;1144959;-77
2024/03/12 19:42:36;;;;;;;173.40;74.50;;;;;;;8.63;100.00;100521.48;5098970;56;1144926;-77
2024/03/12 19:47:46;;;;;;;175.37;79.57;;;;;;;8.60;100.00;100528.28;5098137;56;1145148;-78
2024/03/12 19:52:53;;;;;;;650.50;273.27;;;;;;;8.53;100.00;100527.03;5131076;56;1145118;-75
2024/03/12 19:58:00;;;;;;;225.17;90.27;;;;;;;8.56;100.00;100525.95;5098167;56;1147296;-79
2024/03/12 20:03:11;;;;;;;132.00;62.10;;;;;;;8.50;100.00;100536.94;5097468;56;1144924;-73
2024/03/12 20:08:18;;;;;;;672.85;236.28;;;;;;;8.42;100.00;100533.02;5118586;56;1144861;-75
2024/03/12 20:13:26;;;;;;;791.00;273.30;;;;;;;8.43;100.00;100537.34;5086053;56;1146947;-77
2024/03/12 20:18:38;;;;;;;629.40;229.47;;;;;;;8.49;100.00;100541.36;5098836;56;1147103;-73
2024/03/12 20:23:41;;;;;;;105.03;51.53;;;;;;;8.45;100.00;100533.29;5081453;56;1146897;-73
2024/03/12 20:28:48;;;;;;;95.90;47.33;;;;;;;8.48;100.00;100537.05;5097512;56;1144996;-77
2024/03/12 20:33:54;;;;;;;88.53;47.30;;;;;;;8.50;100.00;100537.78;5067459;56;1142886;-75
2024/03/12 20:39:00;;;;;;;85.37;46.97;;;;;;;8.50;100.00;100530.34;5075015;56;1142639;-77
2024/03/12 20:44:10;;;;;;;102.23;53.40;;;;;;;8.49;100.00;100532.61;5068579;56;1145467;-78
2024/03/12 20:49:13;;;;;;;88.60;46.95;;;;;;;8.50;100.00;100539.58;5043544;57;1145052;-75
2024/03/12 20:54:19;;;;;;;88.97;47.20;;;;;;;8.55;100.00;100537.48;5042729;56;1142867;-76
2024/03/12 20:59:25;;;;;;;95.73;47.23;;;;;;;8.47;100.00;100547.21;5060062;56;1143120;-75
2024/03/12 21:04:31;;;;;;;97.37;47.53;;;;;;;8.32;100.00;100551.73;5043866;56;1142757;-75
2024/03/12 21:09:42;;;;;;;97.23;49.87;;;;;;;8.37;100.00;100558.02;5026673;56;1142936;-75
2024/03/12 21:14:47;;;;;;;86.17;48.47;;;;;;;8.45;100.00;100554.38;5032554;56;1143149;-77
2024/03/12 21:19:54;;;;;;;88.53;47.87;;;;;;;8.40;100.00;100563.09;5022524;57;1143114;-74
2024/03/12 21:24:59;;;;;;;81.70;44.43;;;;;;;8.20;100.00;100563.55;5059377;56;1142960;-76
2024/03/12 21:30:16;;;;;;;94.27;47.50;;;;;;;8.03;100.00;100560.72;5072957;56;1142787;-72
2024/03/12 21:35:15;;;;;;;88.03;48.60;;;;;;;8.04;100.00;100559.30;5077360;56;1142527;-77
2024/03/12 21:40:22;;;;;;;99.60;51.33;;;;;;;8.08;100.00;100559.95;5007004;56;1142995;-74
2024/03/12 21:45:28;;;;;;;126.87;61.87;;;;;;;8.06;100.00;100559.20;5014848;56;1143185;-76
2024/03/12 21:50:35;;;;;;;129.05;63.33;;;;;;;8.01;100.00;100569.19;5115056;56;1144917;-76
2024/03/12 21:55:41;;;;;;;141.03;69.97;;;;;;;7.94;100.00;100572.72;5098074;55;1144728;-75
2024/03/12 22:00:46;;;;;;;160.65;76.28;;;;;;;7.84;100.00;100579.51;5119186;55;1145237;-77
2024/03/12 22:05:52;;;;;;;185.57;95.90;;;;;;;7.71;100.00;100587.84;5118628;56;1145339;-76
2024/03/12 22:10:58;;;;;;;255.13;116.00;;;;;;;7.59;100.00;100589.48;5098634;56;1144904;-75
2024/03/12 22:16:05;;;;;;;196.70;92.77;;;;;;;7.49;100.00;100588.82;5091042;56;1147096;-74
2024/03/12 22:21:13;;;;;;;151.18;74.97;;;;;;;7.45;100.00;100588.66;5119130;56;1145102;-75
2024/03/12 22:26:19;;;;;;;119.70;62.43;;;;;;;7.32;100.00;100585.97;5092883;56;1145276;-77
2024/03/12 22:31:24;;;;;;;120.93;62.17;;;;;;;7.24;100.00;100581.17;5050296;56;1144921;-76
2024/03/12 22:36:30;;;;;;;115.90;57.77;;;;;;;7.34;100.00;100580.96;5095087;56;1144838;-74